sensor_id;sensor_type;location;lat;lon;timestamp;P1;durP1;ratioP1;P2;durP2;ratioP2
73104;SDS011;61296;50.526;30.792;2023-08-07T00:03:33;11.43;;;7.55;;
73104;SDS011;61296;50.526;30.792;2023-08-07T00:18:54;11.57;;;7.65;;
73104;SDS011;61296;50.526;30.792;2023-08-07T00:34:14;9.40;;;8.43;;
73104;SDS011;61296;50.526;30.792;2023-08-07T00:49:33;11.02;;;8.45;;
73104;SDS011;61296;50.526;30.792;2023-08-07T01:04:53;11.30;;;7.97;;
73104;SDS011;61296;50.526;30.792;2023-08-07T01:20:12;10.82;;;8.30;;
73104;SDS011;61296;50.526;30.792;2023-08-07T01:35:35;12.52;;;8.35;;
73104;SDS011;61296;50.526;30.792;2023-08-07T01:51:00;13.68;;;9.10;;
73104;SDS011;61296;50.526;30.792;2023-08-07T02:06:19;12.45;;;8.88;;
73104;SDS011;61296;50.526;30.792;2023-08-07T02:21:39;11.32;;;9.02;;
73104;SDS011;61296;50.526;30.792;2023-08-07T02:36:59;12.40;;;8.60;;
73104;SDS011;61296;50.526;30.792;2023-08-07T02:52:18;13.23;;;9.23;;
73104;SDS011;61296;50.526;30.792;2023-08-07T03:07:37;15.18;;;10.00;;
73104;SDS011;61296;50.526;30.792;2023-08-07T03:22:57;16.02;;;10.45;;
73104;SDS011;61296;50.526;30.792;2023-08-07T03:38:16;18.25;;;10.07;;
73104;SDS011;61296;50.526;30.792;2023-08-07T03:53:36;14.05;;;10.40;;
73104;SDS011;61296;50.526;30.792;2023-08-07T04:08:56;14.45;;;10.35;;
73104;SDS011;61296;50.526;30.792;2023-08-07T04:24:15;13.60;;;11.77;;
73104;SDS011;61296;50.526;30.792;2023-08-07T04:39:36;16.77;;;11.77;;
73104;SDS011;61296;50.526;30.792;2023-08-07T04:54:55;17.95;;;11.70;;
73104;SDS011;61296;50.526;30.792;2023-08-07T05:10:15;18.88;;;12.80;;
73104;SDS011;61296;50.526;30.792;2023-08-07T05:25:34;17.50;;;12.18;;
73104;SDS011;61296;50.526;30.792;2023-08-07T05:40:53;17.80;;;12.02;;
73104;SDS011;61296;50.526;30.792;2023-08-07T05:56:13;21.63;;;12.13;;
73104;SDS011;61296;50.526;30.792;2023-08-07T06:11:32;15.55;;;12.10;;
73104;SDS011;61296;50.526;30.792;2023-08-07T06:26:51;14.93;;;12.52;;
73104;SDS011;61296;50.526;30.792;2023-08-07T06:42:11;15.45;;;13.23;;
73104;SDS011;61296;50.526;30.792;2023-08-07T06:57:34;16.90;;;10.43;;
73104;SDS011;61296;50.526;30.792;2023-08-07T07:13:04;11.93;;;8.93;;
73104;SDS011;61296;50.526;30.792;2023-08-07T07:28:23;27.35;;;10.07;;
73104;SDS011;61296;50.526;30.792;2023-08-07T07:43:43;23.30;;;10.88;;
73104;SDS011;61296;50.526;30.792;2023-08-07T08:15:52;18.38;;;13.98;;
73104;SDS011;61296;50.526;30.792;2023-08-07T08:31:12;13.10;;;10.07;;
73104;SDS011;61296;50.526;30.792;2023-08-07T08:46:33;12.45;;;9.02;;
73104;SDS011;61296;50.526;30.792;2023-08-07T09:01:53;15.57;;;10.25;;
73104;SDS011;61296;50.526;30.792;2023-08-07T09:17:13;17.02;;;12.30;;
73104;SDS011;61296;50.526;30.792;2023-08-07T09:32:33;10.73;;;8.85;;
73104;SDS011;61296;50.526;30.792;2023-08-07T09:48:00;13.98;;;5.63;;
73104;SDS011;61296;50.526;30.792;2023-08-07T10:03:20;9.20;;;7.43;;
73104;SDS011;61296;50.526;30.792;2023-08-07T10:18:41;20.25;;;13.25;;
73104;SDS011;61296;50.526;30.792;2023-08-07T10:34:00;14.73;;;11.10;;
73104;SDS011;61296;50.526;30.792;2023-08-07T10:49:33;9.90;;;8.57;;
73104;SDS011;61296;50.526;30.792;2023-08-07T11:20:14;11.10;;;8.70;;
73104;SDS011;61296;50.526;30.792;2023-08-07T11:35:33;14.40;;;7.00;;
73104;SDS011;61296;50.526;30.792;2023-08-07T11:50:54;7.95;;;4.72;;
73104;SDS011;61296;50.526;30.792;2023-08-07T12:06:14;9.48;;;4.85;;
73104;SDS011;61296;50.526;30.792;2023-08-07T12:21:33;7.63;;;3.90;;
73104;SDS011;61296;50.526;30.792;2023-08-07T12:36:53;4.60;;;3.55;;
73104;SDS011;61296;50.526;30.792;2023-08-07T12:52:12;6.93;;;2.97;;
73104;SDS011;61296;50.526;30.792;2023-08-07T13:07:32;2.58;;;1.95;;
73104;SDS011;61296;50.526;30.792;2023-08-07T13:22:51;6.07;;;1.60;;
73104;SDS011;61296;50.526;30.792;2023-08-07T13:38:11;1.58;;;0.77;;
73104;SDS011;61296;50.526;30.792;2023-08-07T13:53:31;3.92;;;1.02;;
73104;SDS011;61296;50.526;30.792;2023-08-07T14:08:51;1.30;;;1.20;;
73104;SDS011;61296;50.526;30.792;2023-08-07T14:24:11;4.03;;;1.27;;
73104;SDS011;61296;50.526;30.792;2023-08-07T14:39:30;1.85;;;1.45;;
73104;SDS011;61296;50.526;30.792;2023-08-07T14:54:49;3.42;;;1.70;;
73104;SDS011;61296;50.526;30.792;2023-08-07T15:10:08;5.22;;;2.20;;
73104;SDS011;61296;50.526;30.792;2023-08-07T15:25:28;4.13;;;1.60;;
73104;SDS011;61296;50.526;30.792;2023-08-07T15:40:47;4.68;;;1.40;;
73104;SDS011;61296;50.526;30.792;2023-08-07T15:56:08;3.00;;;1.45;;
73104;SDS011;61296;50.526;30.792;2023-08-07T16:11:28;2.38;;;1.70;;
73104;SDS011;61296;50.526;30.792;2023-08-07T16:26:47;2.78;;;1.45;;
73104;SDS011;61296;50.526;30.792;2023-08-07T16:42:07;5.95;;;3.33;;
73104;SDS011;61296;50.526;30.792;2023-08-07T16:57:26;3.88;;;1.25;;
73104;SDS011;61296;50.526;30.792;2023-08-07T17:12:46;2.58;;;1.10;;
73104;SDS011;61296;50.526;30.792;2023-08-07T17:28:05;2.95;;;1.73;;
73104;SDS011;61296;50.526;30.792;2023-08-07T17:43:25;2.97;;;1.42;;
73104;SDS011;61296;50.526;30.792;2023-08-07T17:58:44;2.00;;;1.50;;
73104;SDS011;61296;50.526;30.792;2023-08-07T18:14:03;6.60;;;1.90;;
73104;SDS011;61296;50.526;30.792;2023-08-07T18:29:25;1.98;;;1.58;;
73104;SDS011;61296;50.526;30.792;2023-08-07T18:44:44;2.25;;;1.80;;
73104;SDS011;61296;50.526;30.792;2023-08-07T19:00:06;3.83;;;1.60;;
73104;SDS011;61296;50.526;30.792;2023-08-07T19:15:28;1.73;;;1.63;;
73104;SDS011;61296;50.526;30.792;2023-08-07T19:30:47;4.70;;;2.72;;
73104;SDS011;61296;50.526;30.792;2023-08-07T19:46:07;1.77;;;1.60;;
73104;SDS011;61296;50.526;30.792;2023-08-07T20:01:26;3.40;;;1.83;;
73104;SDS011;61296;50.526;30.792;2023-08-07T20:16:46;1.98;;;1.80;;
73104;SDS011;61296;50.526;30.792;2023-08-07T20:32:05;3.15;;;2.35;;
73104;SDS011;61296;50.526;30.792;2023-08-07T20:47:25;4.03;;;2.80;;
73104;SDS011;61296;50.526;30.792;2023-08-07T21:02:44;2.53;;;2.05;;
73104;SDS011;61296;50.526;30.792;2023-08-07T21:18:04;4.40;;;2.22;;
73104;SDS011;61296;50.526;30.792;2023-08-07T21:33:23;2.60;;;2.40;;
73104;SDS011;61296;50.526;30.792;2023-08-07T21:48:42;3.03;;;2.70;;
73104;SDS011;61296;50.526;30.792;2023-08-07T22:04:02;2.72;;;2.40;;
73104;SDS011;61296;50.526;30.792;2023-08-07T22:19:21;11.63;;;3.45;;
73104;SDS011;61296;50.526;30.792;2023-08-07T22:34:41;7.80;;;3.25;;
73104;SDS011;61296;50.526;30.792;2023-08-07T22:50:00;7.20;;;3.47;;
73104;SDS011;61296;50.526;30.792;2023-08-07T23:05:22;6.28;;;4.10;;
73104;SDS011;61296;50.526;30.792;2023-08-07T23:20:42;5.68;;;3.95;;
73104;SDS011;61296;50.526;30.792;2023-08-07T23:36:01;4.85;;;4.20;;
73104;SDS011;61296;50.526;30.792;2023-08-07T23:51:20;7.07;;;4.57;;
